Time;durP1;ratioP1;P1;durP2;ratioP2;P2;SDS_P1;SDS_P2;PMS_P1;PMS_P2;Temp;Humidity;BMP_temperature;BMP_pressure;BME280_temperature;BME280_humidity;BME280_pressure;Samples;Min_cycle;Max_cycle;Signal;HPM_P1;HPM_P2
2023/02/17 00:01:14;;;;;;;8.65;4.18;;;;;;;;;;5093217;28;20032;-69
2023/02/17 00:03:40;;;;;;;7.53;3.92;;;;;;;;;;5089861;28;20035;-69
2023/02/17 00:06:09;;;;;;;6.20;3.42;;;;;;;;;;5093266;28;20016;-69
2023/02/17 00:08:36;;;;;;;7.57;3.72;;;;;;;;;;5105401;28;20381;-72
2023/02/17 00:11:02;;;;;;;7.82;3.92;;;;;;;;;;5093878;28;20465;-70
2023/02/17 00:13:28;;;;;;;6.22;3.67;;;;;;;;;;5087285;28;20046;-70
2023/02/17 00:15:54;;;;;;;7.22;3.70;;;;;;;;;;5102602;28;20028;-70
2023/02/17 00:18:20;;;;;;;7.15;3.03;;;;;;;;;;5098244;28;20031;-70
2023/02/17 00:20:46;;;;;;;8.70;3.70;;;;;;;;;;5094654;28;20031;-69
2023/02/17 00:23:12;;;;;;;6.97;3.53;;;;;;;;;;5091566;28;20024;-69
2023/02/17 00:25:38;;;;;;;5.40;3.30;;;;;;;;;;5084376;28;20028;-69
2023/02/17 00:28:04;;;;;;;9.63;3.97;;;;;;;;;;5110922;28;20061;-68
2023/02/17 00:30:30;;;;;;;9.55;3.72;;;;;;;;;;5096580;28;20024;-73
2023/02/17 00:32:56;;;;;;;7.70;3.65;;;;;;;;;;5095975;28;20447;-72
2023/02/17 00:35:22;;;;;;;6.35;3.15;;;;;;;;;;5095235;28;20107;-69
2023/02/17 00:37:48;;;;;;;7.30;3.45;;;;;;;;;;5092305;28;20028;-69
2023/02/17 00:40:14;;;;;;;5.72;3.60;;;;;;;;;;5098166;28;20078;-69
2023/02/17 00:42:41;;;;;;;13.50;4.18;;;;;;;;;;5091983;28;20525;-69
2023/02/17 00:45:07;;;;;;;7.22;3.42;;;;;;;;;;5097306;28;20078;-71
2023/02/17 00:47:33;;;;;;;6.43;3.30;;;;;;;;;;5097374;28;20116;-74
2023/02/17 00:49:59;;;;;;;6.78;3.65;;;;;;;;;;5100700;28;20027;-69
2023/02/17 00:52:25;;;;;;;9.02;3.85;;;;;;;;;;5088870;28;20028;-68
2023/02/17 00:54:51;;;;;;;6.45;3.30;;;;;;;;;;5098853;28;20108;-70
2023/02/17 00:57:17;;;;;;;6.55;3.33;;;;;;;;;;5095694;28;20350;-70
2023/02/17 00:59:43;;;;;;;11.00;3.58;;;;;;;;;;5100688;28;20043;-70
2023/02/17 01:02:09;;;;;;;7.13;3.42;;;;;;;;;;5099943;28;20059;-69
2023/02/17 01:04:35;;;;;;;8.55;3.47;;;;;;;;;;5094816;28;20094;-70
2023/02/17 01:07:01;;;;;;;6.85;3.47;;;;;;;;;;5096811;28;20464;-69
2023/02/17 01:09:27;;;;;;;6.13;3.40;;;;;;;;;;5090456;28;20032;-69
2023/02/17 01:11:52;;;;;;;7.68;3.35;;;;;;;;;;5091712;28;20016;-68
2023/02/17 01:14:18;;;;;;;7.03;3.40;;;;;;;;;;5091821;28;20036;-69
2023/02/17 01:16:46;;;;;;;7.22;3.40;;;;;;;;;;5094039;28;20461;-70
2023/02/17 01:19:13;;;;;;;10.48;3.70;;;;;;;;;;5082645;28;20449;-69
2023/02/17 01:21:39;;;;;;;7.28;3.70;;;;;;;;;;5090994;28;20063;-69
2023/02/17 01:24:07;;;;;;;7.55;3.30;;;;;;;;;;5088371;28;20506;-69
2023/02/17 01:26:34;;;;;;;6.35;3.70;;;;;;;;;;5091947;28;20107;-77
2023/02/17 01:29:00;;;;;;;6.95;3.10;;;;;;;;;;5058107;28;20095;-69
2023/02/17 01:31:26;;;;;;;5.75;3.38;;;;;;;;;;5073448;28;20032;-69
2023/02/17 01:33:53;;;;;;;5.43;2.90;;;;;;;;;;5081652;28;20632;-70
2023/02/17 01:36:19;;;;;;;7.60;2.90;;;;;;;;;;5080630;28;20032;-68
2023/02/17 01:38:45;;;;;;;7.95;3.20;;;;;;;;;;5069604;28;20044;-69
2023/02/17 01:41:12;;;;;;;6.57;3.20;;;;;;;;;;5076546;28;20036;-68
2023/02/17 01:43:38;;;;;;;9.23;3.35;;;;;;;;;;5081262;28;20036;-69
2023/02/17 01:46:05;;;;;;;5.97;3.20;;;;;;;;;;5070699;28;20128;-69
2023/02/17 01:48:33;;;;;;;7.63;2.92;;;;;;;;;;5063402;28;20071;-75
2023/02/17 01:51:05;;;;;;;7.03;3.10;;;;;;;;;;5068588;28;20036;-70
2023/02/17 01:53:51;;;;;;;5.95;3.10;;;;;;;;;;5071143;28;20032;-74
2023/02/17 01:56:18;;;;;;;7.18;3.47;;;;;;;;;;5069870;28;20024;-69
2023/02/17 01:58:49;;;;;;;9.35;3.17;;;;;;;;;;5075577;28;20028;-68
2023/02/17 02:01:16;;;;;;;6.68;3.00;;;;;;;;;;5083878;28;20047;-71
2023/02/17 02:03:43;;;;;;;6.35;3.25;;;;;;;;;;5078792;28;20051;-69
2023/02/17 02:06:14;;;;;;;7.40;2.88;;;;;;;;;;5070658;28;20032;-69
2023/02/17 02:08:52;;;;;;;6.95;3.10;;;;;;;;;;5071363;28;20090;-69
2023/02/17 02:11:18;;;;;;;5.18;2.70;;;;;;;;;;5080121;28;20021;-69
2023/02/17 02:13:44;;;;;;;7.22;2.88;;;;;;;;;;5071448;28;20032;-71
2023/02/17 02:16:18;;;;;;;10.73;3.70;;;;;;;;;;5071800;28;20029;-70
2023/02/17 02:18:53;;;;;;;7.47;3.28;;;;;;;;;;5059362;28;20488;-72
2023/02/17 02:21:28;;;;;;;8.05;3.28;;;;;;;;;;5078095;28;20166;-69
2023/02/17 02:24:00;;;;;;;6.55;2.92;;;;;;;;;;5074655;28;20041;-69
2023/02/17 02:26:29;;;;;;;7.93;3.17;;;;;;;;;;5073850;28;20025;-70
2023/02/17 02:28:58;;;;;;;8.65;3.10;;;;;;;;;;5065391;28;20802;-70
2023/02/17 02:31:36;;;;;;;7.20;2.85;;;;;;;;;;5075893;28;20027;-69
2023/02/17 02:34:08;;;;;;;10.48;3.38;;;;;;;;;;5076172;28;21533;-69
2023/02/17 02:36:46;;;;;;;8.30;3.10;;;;;;;;;;5065415;28;20023;-75
2023/02/17 02:39:23;;;;;;;7.57;3.25;;;;;;;;;;5070890;28;20090;-69
2023/02/17 02:41:52;;;;;;;8.13;2.90;;;;;;;;;;5070124;28;20028;-70
2023/02/17 02:44:19;;;;;;;9.48;3.55;;;;;;;;;;5069430;28;20032;-70
2023/02/17 02:46:45;;;;;;;7.63;3.10;;;;;;;;;;5065189;28;20111;-69
2023/02/17 02:49:11;;;;;;;8.23;3.72;;;;;;;;;;5070252;28;20162;-69
2023/02/17 02:51:48;;;;;;;4.97;2.95;;;;;;;;;;5082236;28;20029;-70
2023/02/17 02:54:25;;;;;;;19.27;3.83;;;;;;;;;;5062723;28;20115;-70
2023/02/17 02:56:57;;;;;;;6.75;3.03;;;;;;;;;;5074569;28;20036;-69
2023/02/17 02:59:34;;;;;;;6.65;2.92;;;;;;;;;;5071951;28;20115;-70
2023/02/17 03:02:07;;;;;;;8.85;3.28;;;;;;;;;;5071500;28;20036;-70
2023/02/17 03:04:35;;;;;;;7.43;2.78;;;;;;;;;;5072603;28;20037;-75
2023/02/17 03:07:05;;;;;;;7.88;3.22;;;;;;;;;;5070012;28;20020;-69
2023/02/17 03:09:31;;;;;;;4.70;2.67;;;;;;;;;;5071716;28;20092;-75
2023/02/17 03:11:58;;;;;;;7.90;3.00;;;;;;;;;;5069613;28;20027;-70
2023/02/17 03:14:24;;;;;;;10.10;3.35;;;;;;;;;;5070155;28;20033;-68
2023/02/17 03:16:51;;;;;;;5.03;3.17;;;;;;;;;;5043957;28;20086;-69
2023/02/17 03:19:19;;;;;;;6.30;2.88;;;;;;;;;;5067726;28;20056;-69
2023/02/17 03:21:50;;;;;;;8.27;3.28;;;;;;;;;;5069642;28;20516;-69
2023/02/17 03:24:16;;;;;;;7.22;2.95;;;;;;;;;;5069684;28;20037;-69
2023/02/17 03:26:42;;;;;;;6.20;2.80;;;;;;;;;;5071567;28;20024;-70
2023/02/17 03:29:08;;;;;;;7.18;3.03;;;;;;;;;;5080439;28;20051;-69
2023/02/17 03:31:35;;;;;;;8.30;2.70;;;;;;;;;;5070078;28;20519;-75
2023/02/17 03:34:01;;;;;;;9.73;3.47;;;;;;;;;;5070415;28;20108;-68
2023/02/17 03:36:28;;;;;;;8.40;2.90;;;;;;;;;;5080850;28;20500;-72
2023/02/17 03:38:54;;;;;;;7.93;2.63;;;;;;;;;;5072513;28;20090;-69
2023/02/17 03:41:20;;;;;;;5.28;2.95;;;;;;;;;;5078268;28;20036;-69
2023/02/17 03:43:46;;;;;;;9.55;2.95;;;;;;;;;;5075297;28;20020;-71
2023/02/17 03:46:13;;;;;;;10.70;3.33;;;;;;;;;;5073368;28;20020;-69
2023/02/17 03:48:39;;;;;;;12.10;3.25;;;;;;;;;;5072208;28;20033;-69
2023/02/17 03:51:21;;;;;;;8.15;2.97;;;;;;;;;;5074177;28;20095;-69
2023/02/17 03:53:48;;;;;;;7.82;4.05;;;;;;;;;;5070038;28;20025;-70
2023/02/17 03:56:14;;;;;;;10.18;3.10;;;;;;;;;;5075722;28;20020;-70
2023/02/17 03:58:40;;;;;;;12.88;3.95;;;;;;;;;;5072366;28;20071;-70
2023/02/17 04:01:06;;;;;;;9.63;2.78;;;;;;;;;;5076134;28;20028;-68
2023/02/17 04:03:33;;;;;;;9.55;3.30;;;;;;;;;;5075222;28;20021;-74
2023/02/17 04:05:59;;;;;;;6.72;2.70;;;;;;;;;;5073144;28;20029;-69
2023/02/17 04:08:26;;;;;;;6.35;3.10;;;;;;;;;;5073727;28;20466;-69
2023/02/17 04:10:56;;;;;;;6.07;2.80;;;;;;;;;;5075895;28;20204;-70
2023/02/17 04:13:23;;;;;;;5.10;3.30;;;;;;;;;;5073278;28;20033;-69
2023/02/17 04:15:49;;;;;;;7.53;3.58;;;;;;;;;;5068692;28;20151;-69
2023/02/17 04:18:15;;;;;;;9.05;3.65;;;;;;;;;;5080670;28;20101;-69
2023/02/17 04:20:42;;;;;;;11.00;3.65;;;;;;;;;;5089476;28;20028;-70
2023/02/17 04:23:08;;;;;;;12.18;4.53;;;;;;;;;;5074083;28;20032;-71
2023/02/17 04:25:35;;;;;;;5.63;3.40;;;;;;;;;;5071748;28;20036;-76
2023/02/17 04:28:01;;;;;;;8.60;3.42;;;;;;;;;;5091522;28;20411;-70
2023/02/17 04:30:27;;;;;;;7.95;3.17;;;;;;;;;;5097195;28;20340;-70
2023/02/17 04:32:53;;;;;;;6.00;3.00;;;;;;;;;;5096974;28;20023;-70
2023/02/17 04:35:19;;;;;;;5.82;3.05;;;;;;;;;;5092211;28;20027;-70
2023/02/17 04:37:45;;;;;;;7.88;3.45;;;;;;;;;;5100105;28;20028;-70
2023/02/17 04:40:11;;;;;;;8.10;3.63;;;;;;;;;;5098177;28;20379;-68
2023/02/17 04:42:37;;;;;;;9.07;4.30;;;;;;;;;;5093549;28;20051;-69
2023/02/17 04:45:06;;;;;;;7.50;3.78;;;;;;;;;;5079291;28;20081;-69
2023/02/17 04:47:32;;;;;;;7.70;3.47;;;;;;;;;;5096398;28;20099;-75
2023/02/17 04:49:58;;;;;;;6.35;3.22;;;;;;;;;;5091257;28;20099;-69
2023/02/17 04:52:24;;;;;;;6.18;3.28;;;;;;;;;;5092942;28;20549;-69
2023/02/17 04:54:50;;;;;;;5.65;3.25;;;;;;;;;;5089548;28;20136;-70
2023/02/17 04:57:16;;;;;;;15.07;3.65;;;;;;;;;;5094057;28;20023;-70
2023/02/17 04:59:43;;;;;;;8.20;3.28;;;;;;;;;;5092873;28;20071;-71
2023/02/17 05:02:09;;;;;;;6.30;2.97;;;;;;;;;;5092743;28;20077;-70
2023/02/17 05:04:35;;;;;;;6.50;2.85;;;;;;;;;;5088033;28;20044;-76
2023/02/17 05:07:01;;;;;;;5.93;3.00;;;;;;;;;;5100488;28;20107;-70
2023/02/17 05:09:27;;;;;;;7.85;3.08;;;;;;;;;;5096064;28;20096;-69
2023/02/17 05:11:53;;;;;;;4.78;2.67;;;;;;;;;;5095810;28;20683;-70
2023/02/17 05:14:19;;;;;;;7.78;3.00;;;;;;;;;;5087195;28;20024;-70
2023/02/17 05:16:45;;;;;;;10.48;3.30;;;;;;;;;;5091566;28;20066;-69
2023/02/17 05:19:11;;;;;;;5.93;3.00;;;;;;;;;;5085531;28;20077;-70
2023/02/17 05:21:37;;;;;;;7.57;3.40;;;;;;;;;;5075722;28;20412;-70
2023/02/17 05:24:04;;;;;;;6.68;2.92;;;;;;;;;;5098465;28;20024;-70
2023/02/17 05:26:30;;;;;;;7.05;2.80;;;;;;;;;;5094003;28;20034;-70
2023/02/17 05:28:56;;;;;;;10.23;3.40;;;;;;;;;;5090673;28;20083;-70
2023/02/17 05:31:22;;;;;;;12.68;3.20;;;;;;;;;;5083663;28;20032;-70
2023/02/17 05:33:48;;;;;;;5.20;2.90;;;;;;;;;;5090792;28;20384;-71
2023/02/17 05:36:14;;;;;;;11.13;3.83;;;;;;;;;;5091966;28;20020;-70
2023/02/17 05:38:40;;;;;;;6.07;3.47;;;;;;;;;;5099328;28;20028;-72
2023/02/17 05:41:07;;;;;;;8.02;3.22;;;;;;;;;;5092428;28;20036;-70
2023/02/17 05:43:33;;;;;;;10.95;3.55;;;;;;;;;;5090262;28;20024;-76
2023/02/17 05:46:03;;;;;;;10.05;3.72;;;;;;;;;;5091461;28;20489;-70
2023/02/17 05:48:29;;;;;;;8.77;3.47;;;;;;;;;;5100209;28;20420;-70
2023/02/17 05:50:55;;;;;;;9.95;3.25;;;;;;;;;;5089046;28;20153;-70
2023/02/17 05:53:21;;;;;;;8.75;3.53;;;;;;;;;;5094813;28;20035;-70
2023/02/17 05:55:47;;;;;;;10.18;3.60;;;;;;;;;;5089873;28;20051;-69
2023/02/17 05:58:13;;;;;;;7.53;3.85;;;;;;;;;;5092104;28;20419;-70
2023/02/17 06:00:38;;;;;;;7.78;3.17;;;;;;;;;;5069648;28;20020;-70
2023/02/17 06:03:05;;;;;;;5.32;2.90;;;;;;;;;;5090755;28;20145;-70
2023/02/17 06:05:31;;;;;;;7.78;3.55;;;;;;;;;;5091377;28;20039;-74
2023/02/17 06:07:57;;;;;;;8.90;3.35;;;;;;;;;;5093716;28;20027;-69
2023/02/17 06:10:23;;;;;;;5.35;3.03;;;;;;;;;;5087516;28;20031;-69
2023/02/17 06:12:49;;;;;;;5.47;3.50;;;;;;;;;;5094967;28;20379;-69
2023/02/17 06:15:15;;;;;;;10.25;3.20;;;;;;;;;;5102655;28;20510;-69
2023/02/17 06:17:41;;;;;;;8.27;3.53;;;;;;;;;;5098174;28;20065;-69
2023/02/17 06:20:07;;;;;;;6.43;3.17;;;;;;;;;;5090118;28;20028;-69
2023/02/17 06:22:33;;;;;;;6.97;3.50;;;;;;;;;;5097023;28;20050;-74
2023/02/17 06:24:59;;;;;;;11.13;3.53;;;;;;;;;;5088656;28;20039;-71
2023/02/17 06:27:25;;;;;;;9.82;3.25;;;;;;;;;;5086616;28;20117;-70
2023/02/17 06:29:51;;;;;;;6.97;3.38;;;;;;;;;;5072620;28;20571;-69
2023/02/17 06:32:17;;;;;;;6.22;3.17;;;;;;;;;;5070600;28;20020;-69
2023/02/17 06:34:43;;;;;;;10.70;3.90;;;;;;;;;;5070078;28;20432;-70
2023/02/17 06:37:09;;;;;;;6.45;3.65;;;;;;;;;;5071476;28;20116;-68
2023/02/17 06:39:35;;;;;;;7.47;3.55;;;;;;;;;;5082689;28;20445;-71
2023/02/17 06:42:01;;;;;;;8.10;3.00;;;;;;;;;;5072323;28;20103;-68
2023/02/17 06:44:27;;;;;;;10.90;3.92;;;;;;;;;;5074820;28;20104;-68
2023/02/17 06:46:53;;;;;;;6.05;3.50;;;;;;;;;;5075094;28;20028;-69
2023/02/17 06:49:19;;;;;;;7.07;3.28;;;;;;;;;;5071046;28;20033;-68
2023/02/17 06:51:45;;;;;;;6.20;3.25;;;;;;;;;;5070429;28;20017;-68
2023/02/17 06:54:11;;;;;;;13.15;3.08;;;;;;;;;;5078052;28;20089;-70
2023/02/17 06:56:37;;;;;;;11.02;3.45;;;;;;;;;;5068014;28;20020;-69
2023/02/17 06:59:03;;;;;;;9.05;3.40;;;;;;;;;;5072116;28;20025;-69
2023/02/17 07:01:32;;;;;;;8.43;3.75;;;;;;;;;;5075114;28;20016;-68
2023/02/17 07:03:58;;;;;;;11.35;3.90;;;;;;;;;;5074068;28;20099;-70
2023/02/17 07:06:24;;;;;;;7.82;3.58;;;;;;;;;;5063632;28;20021;-68
2023/02/17 07:08:51;;;;;;;6.28;3.05;;;;;;;;;;5053430;28;21405;-71
2023/02/17 07:11:17;;;;;;;4.47;2.97;;;;;;;;;;5067373;28;20025;-69
2023/02/17 07:13:43;;;;;;;8.65;3.22;;;;;;;;;;5065089;28;20099;-68
2023/02/17 07:16:11;;;;;;;7.13;2.97;;;;;;;;;;5077593;28;20274;-72
2023/02/17 07:18:37;;;;;;;8.02;3.17;;;;;;;;;;5071348;28;20023;-72
2023/02/17 07:21:04;;;;;;;7.38;3.10;;;;;;;;;;5071195;28;20017;-68
2023/02/17 07:23:30;;;;;;;6.00;3.30;;;;;;;;;;5065694;28;20029;-68
2023/02/17 07:26:00;;;;;;;4.43;2.70;;;;;;;;;;5073833;28;20075;-71
2023/02/17 07:28:26;;;;;;;5.32;3.28;;;;;;;;;;5073810;28;20559;-68
2023/02/17 07:30:52;;;;;;;6.15;3.50;;;;;;;;;;5068898;28;20036;-71
2023/02/17 07:33:18;;;;;;;4.90;2.67;;;;;;;;;;5070604;28;20028;-68
2023/02/17 07:35:44;;;;;;;4.95;2.47;;;;;;;;;;5078083;28;20107;-68
2023/02/17 07:38:10;;;;;;;6.45;3.30;;;;;;;;;;5075246;28;20503;-68
2023/02/17 07:40:36;;;;;;;10.02;3.55;;;;;;;;;;5070171;28;20070;-69
2023/02/17 07:43:02;;;;;;;4.50;2.72;;;;;;;;;;5073264;28;20028;-69
2023/02/17 07:45:28;;;;;;;7.05;2.70;;;;;;;;;;5082717;28;20120;-69
2023/02/17 07:47:54;;;;;;;7.18;2.75;;;;;;;;;;5057591;28;20132;-69
2023/02/17 07:50:20;;;;;;;7.03;3.05;;;;;;;;;;5069227;28;20028;-69
2023/02/17 07:52:46;;;;;;;5.50;2.83;;;;;;;;;;5074208;28;20481;-68
2023/02/17 07:55:12;;;;;;;6.53;2.75;;;;;;;;;;5062320;28;20032;-69
2023/02/17 07:57:38;;;;;;;5.07;2.30;;;;;;;;;;5077815;28;20423;-69
2023/02/17 08:00:05;;;;;;;7.80;2.88;;;;;;;;;;5072594;28;20099;-69
2023/02/17 08:02:31;;;;;;;5.10;2.80;;;;;;;;;;5069321;28;20028;-74
2023/02/17 08:04:57;;;;;;;6.75;2.60;;;;;;;;;;5078328;28;20109;-68
2023/02/17 08:07:23;;;;;;;3.83;2.38;;;;;;;;;;5084395;28;20016;-68
2023/02/17 08:15:18;;;;;;;4.47;2.42;;;;;;;;;;5077067;28;20338;-69
2023/02/17 08:17:44;;;;;;;7.40;3.38;;;;;;;;;;5077423;28;20017;-69
2023/02/17 08:20:12;;;;;;;8.15;3.22;;;;;;;;;;5080525;28;20027;-69
2023/02/17 08:22:38;;;;;;;7.00;2.53;;;;;;;;;;5089348;28;20031;-69
2023/02/17 08:25:04;;;;;;;5.10;2.45;;;;;;;;;;5073918;28;20037;-69
2023/02/17 08:27:30;;;;;;;3.42;2.10;;;;;;;;;;5078132;28;20051;-71
2023/02/17 08:29:56;;;;;;;7.22;2.80;;;;;;;;;;5095456;28;20028;-68
2023/02/17 08:32:23;;;;;;;5.95;2.08;;;;;;;;;;5092777;28;20032;-69
2023/02/17 08:34:49;;;;;;;5.63;2.33;;;;;;;;;;5096951;28;20031;-68
2023/02/17 08:37:15;;;;;;;4.93;2.08;;;;;;;;;;5103445;28;20055;-68
2023/02/17 08:39:41;;;;;;;3.58;2.28;;;;;;;;;;5099720;28;20050;-68
2023/02/17 08:42:07;;;;;;;7.68;2.28;;;;;;;;;;5099388;28;20023;-68
2023/02/17 08:44:34;;;;;;;6.78;2.38;;;;;;;;;;5096247;28;20147;-74
2023/02/17 08:47:01;;;;;;;8.77;2.20;;;;;;;;;;5096175;28;20047;-68
2023/02/17 08:49:28;;;;;;;4.57;2.33;;;;;;;;;;5109439;28;20457;-69
2023/02/17 08:51:54;;;;;;;3.28;2.00;;;;;;;;;;5106033;28;20080;-70
2023/02/17 08:54:20;;;;;;;5.80;2.13;;;;;;;;;;5109755;28;20472;-68
2023/02/17 08:56:46;;;;;;;3.72;2.00;;;;;;;;;;5099621;28;20107;-68
2023/02/17 08:59:12;;;;;;;3.20;2.10;;;;;;;;;;5099149;28;20032;-69
2023/02/17 09:01:38;;;;;;;5.07;1.95;;;;;;;;;;5100159;28;20028;-67
2023/02/17 09:04:07;;;;;;;5.60;2.17;;;;;;;;;;5094832;28;20024;-68
2023/02/17 09:06:34;;;;;;;5.95;2.10;;;;;;;;;;5099662;28;20384;-74
2023/02/17 09:09:00;;;;;;;2.22;1.85;;;;;;;;;;5102809;28;20099;-68
2023/02/17 09:11:26;;;;;;;3.45;2.10;;;;;;;;;;5092543;28;20024;-68
2023/02/17 09:13:52;;;;;;;5.10;2.03;;;;;;;;;;5090931;28;20031;-68
2023/02/17 09:16:20;;;;;;;4.60;2.22;;;;;;;;;;5092252;28;20028;-69
2023/02/17 09:18:46;;;;;;;8.88;2.53;;;;;;;;;;5090560;28;20024;-68
2023/02/17 09:21:12;;;;;;;6.55;2.17;;;;;;;;;;5089788;28;20059;-69
2023/02/17 09:23:39;;;;;;;3.60;2.38;;;;;;;;;;5098043;28;20050;-69
2023/02/17 09:26:06;;;;;;;7.38;2.33;;;;;;;;;;5096061;28;20036;-68
2023/02/17 09:28:33;;;;;;;7.07;2.05;;;;;;;;;;5102107;28;20055;-73
2023/02/17 09:30:59;;;;;;;3.25;1.98;;;;;;;;;;5090791;28;20031;-68
2023/02/17 09:33:25;;;;;;;5.45;1.75;;;;;;;;;;5097453;28;20028;-68
2023/02/17 09:35:51;;;;;;;6.03;2.53;;;;;;;;;;5087483;28;20806;-68
2023/02/17 09:38:17;;;;;;;4.05;1.83;;;;;;;;;;5078268;28;20084;-69
2023/02/17 09:40:44;;;;;;;6.35;2.10;;;;;;;;;;5096366;28;20520;-70
2023/02/17 09:43:13;;;;;;;3.75;1.73;;;;;;;;;;5091605;28;20032;-70
2023/02/17 09:45:42;;;;;;;4.72;2.25;;;;;;;;;;5089980;28;20119;-69
2023/02/17 09:48:13;;;;;;;2.53;1.90;;;;;;;;;;5098998;28;20460;-69
2023/02/17 09:50:39;;;;;;;6.22;2.40;;;;;;;;;;5083037;28;20044;-70
2023/02/17 09:53:19;;;;;;;3.28;2.08;;;;;;;;;;5097266;28;20027;-69
2023/02/17 09:55:45;;;;;;;;;;;;;;;;;;5071178;28;20040;-69
2023/02/17 09:58:14;;;;;;;5.13;1.90;;;;;;;;;;5095006;28;19912;-70
2023/02/17 10:00:43;;;;;;;8.82;2.10;;;;;;;;;;5086016;28;20103;-72
2023/02/17 10:03:21;;;;;;;5.93;1.83;;;;;;;;;;5095313;28;20061;-70
2023/02/17 10:06:13;;;;;;;4.10;1.67;;;;;;;;;;5093396;28;20495;-70
2023/02/17 10:08:42;;;;;;;3.97;2.05;;;;;;;;;;5063308;28;20055;-72
2023/02/17 10:11:13;;;;;;;5.07;2.13;;;;;;;;;;5092341;28;20499;-70
2023/02/17 10:13:40;;;;;;;4.43;1.77;;;;;;;;;;5105013;28;20098;-69
2023/02/17 10:16:09;;;;;;;8.32;2.03;;;;;;;;;;5090955;28;20020;-70
2023/02/17 10:18:44;;;;;;;4.68;2.38;;;;;;;;;;5090616;28;20025;-71
2023/02/17 10:21:11;;;;;;;6.43;1.60;;;;;;;;;;5078933;28;20024;-68
2023/02/17 10:23:38;;;;;;;3.30;1.88;;;;;;;;;;5107689;28;20030;-70
2023/02/17 10:26:16;;;;;;;4.75;1.95;;;;;;;;;;5093513;28;20032;-70
2023/02/17 10:29:01;;;;;;;3.65;1.70;;;;;;;;;;5093887;28;20054;-69
2023/02/17 10:31:29;;;;;;;4.07;1.90;;;;;;;;;;5086205;28;20047;-69
2023/02/17 10:34:03;;;;;;;9.52;2.35;;;;;;;;;;5098240;28;20062;-70
2023/02/17 10:36:32;;;;;;;5.38;1.38;;;;;;;;;;5091012;28;20024;-68
2023/02/17 10:39:04;;;;;;;4.97;2.38;;;;;;;;;;5091892;28;20027;-66
2023/02/17 10:41:34;;;;;;;6.00;2.33;;;;;;;;;;5090550;28;20072;-68
2023/02/17 10:44:02;;;;;;;5.77;1.63;;;;;;;;;;5099816;28;20036;-68
2023/02/17 10:46:30;;;;;;;4.03;1.58;;;;;;;;;;5093806;28;20023;-70
2023/02/17 10:48:57;;;;;;;2.72;1.33;;;;;;;;;;5096376;28;20827;-68
2023/02/17 10:51:26;;;;;;;4.13;1.85;;;;;;;;;;5101087;28;20023;-69
2023/02/17 10:54:10;;;;;;;7.43;1.80;;;;;;;;;;5093215;28;20033;-67
2023/02/17 10:56:44;;;;;;;22.23;2.63;;;;;;;;;;5084811;28;20069;-76
2023/02/17 10:59:29;;;;;;;11.80;2.15;;;;;;;;;;5101093;28;20023;-73
2023/02/17 11:01:57;;;;;;;11.65;1.75;;;;;;;;;;5100467;28;20039;-69
2023/02/17 11:04:23;;;;;;;10.38;2.10;;;;;;;;;;5101492;28;20035;-71
2023/02/17 11:06:50;;;;;;;3.03;1.40;;;;;;;;;;5093503;28;20028;-70
2023/02/17 11:09:33;;;;;;;4.22;1.60;;;;;;;;;;5093798;28;20016;-75
2023/02/17 11:12:00;;;;;;;5.97;1.55;;;;;;;;;;5101849;28;20028;-71
2023/02/17 11:14:28;;;;;;;7.05;1.75;;;;;;;;;;5109087;28;20020;-70
2023/02/17 11:17:02;;;;;;;11.15;1.63;;;;;;;;;;5083347;28;20216;-72
2023/02/17 11:19:34;;;;;;;2.67;1.20;;;;;;;;;;5090649;28;20024;-70
2023/02/17 11:22:02;;;;;;;3.83;1.40;;;;;;;;;;5063658;28;20028;-70
2023/02/17 11:24:28;;;;;;;2.10;1.40;;;;;;;;;;5078421;28;20028;-71
2023/02/17 11:26:59;;;;;;;3.83;1.35;;;;;;;;;;5106235;28;20024;-71
2023/02/17 11:29:25;;;;;;;3.95;1.42;;;;;;;;;;5079700;28;20431;-72
2023/02/17 11:31:54;;;;;;;2.35;1.00;;;;;;;;;;5095491;28;20469;-71
2023/02/17 11:34:22;;;;;;;5.50;1.30;;;;;;;;;;5103139;28;20434;-70
2023/02/17 11:36:56;;;;;;;1.83;0.88;;;;;;;;;;5095157;28;20016;-70
2023/02/17 11:39:22;;;;;;;1.42;0.95;;;;;;;;;;5103890;28;20020;-70
2023/02/17 11:41:48;;;;;;;1.65;1.00;;;;;;;;;;5103307;28;20080;-71
2023/02/17 11:44:24;;;;;;;1.38;0.90;;;;;;;;;;5102870;28;20028;-71
2023/02/17 11:47:20;;;;;;;1.83;0.88;;;;;;;;;;5093387;28;20069;-70
2023/02/17 11:50:05;;;;;;;1.63;1.00;;;;;;;;;;5061069;28;20393;-71
2023/02/17 11:52:33;;;;;;;0.93;0.90;;;;;;;;;;5094483;28;20041;-76
2023/02/17 11:55:18;;;;;;;1.23;0.70;;;;;;;;;;5089811;28;20044;-70
2023/02/17 11:57:49;;;;;;;3.28;0.90;;;;;;;;;;5090001;28;20457;-69
2023/02/17 12:00:17;;;;;;;1.77;0.88;;;;;;;;;;5093382;28;20032;-68
2023/02/17 12:02:46;;;;;;;2.25;1.00;;;;;;;;;;5099720;28;20027;-68
2023/02/17 12:05:21;;;;;;;3.00;1.00;;;;;;;;;;5102404;28;20036;-69
2023/02/17 12:08:07;;;;;;;2.95;0.77;;;;;;;;;;5095528;28;20027;-69
2023/02/17 12:10:52;;;;;;;2.08;1.10;;;;;;;;;;5079927;28;20405;-74
2023/02/17 12:13:39;;;;;;;2.17;0.90;;;;;;;;;;5099987;28;20028;-69
2023/02/17 12:16:14;;;;;;;7.70;1.20;;;;;;;;;;5078025;28;20073;-69
2023/02/17 12:18:40;;;;;;;2.80;0.80;;;;;;;;;;5092614;28;20020;-68
2023/02/17 12:21:06;;;;;;;3.78;0.93;;;;;;;;;;5100909;28;20414;-69
2023/02/17 12:23:47;;;;;;;2.33;0.88;;;;;;;;;;5103781;28;20032;-76
2023/02/17 12:26:16;;;;;;;2.60;0.90;;;;;;;;;;5099037;28;20151;-70
2023/02/17 12:28:55;;;;;;;2.80;0.95;;;;;;;;;;5078872;28;20055;-70
2023/02/17 12:31:30;;;;;;;3.35;0.88;;;;;;;;;;5087598;28;20044;-70
2023/02/17 12:33:59;;;;;;;1.00;0.90;;;;;;;;;;5081497;28;20756;-70
2023/02/17 12:36:29;;;;;;;1.52;0.80;;;;;;;;;;5077590;28;20091;-70
2023/02/17 12:39:21;;;;;;;2.03;1.00;;;;;;;;;;5072297;28;20162;-69
2023/02/17 12:41:55;;;;;;;4.13;0.77;;;;;;;;;;5067800;28;20485;-70
2023/02/17 12:44:24;;;;;;;5.57;0.85;;;;;;;;;;5073904;28;20032;-69
2023/02/17 12:46:52;;;;;;;2.03;0.95;;;;;;;;;;5081281;28;20396;-70
2023/02/17 12:49:25;;;;;;;1.27;1.10;;;;;;;;;;5074114;28;20052;-69
2023/02/17 12:51:57;;;;;;;1.08;0.75;;;;;;;;;;5076680;28;20968;-70
2023/02/17 12:54:26;;;;;;;4.13;0.90;;;;;;;;;;5080961;28;20024;-71
2023/02/17 12:57:08;;;;;;;2.20;0.82;;;;;;;;;;5077000;28;20027;-69
2023/02/17 12:59:35;;;;;;;2.30;1.00;;;;;;;;;;5068967;28;20489;-73
2023/02/17 13:02:03;;;;;;;3.53;0.90;;;;;;;;;;5079778;28;20024;-69
2023/02/17 13:04:30;;;;;;;6.00;1.55;;;;;;;;;;5085430;28;20036;-71
2023/02/17 13:07:03;;;;;;;3.22;1.00;;;;;;;;;;5053119;28;20036;-71
2023/02/17 13:09:35;;;;;;;3.20;0.80;;;;;;;;;;5071685;28;20025;-71
2023/02/17 13:12:10;;;;;;;1.75;0.73;;;;;;;;;;5077779;28;20047;-71
2023/02/17 13:14:50;;;;;;;1.10;0.88;;;;;;;;;;5071222;28;20098;-71
2023/02/17 13:17:23;;;;;;;2.77;0.60;;;;;;;;;;5071232;28;20030;-75
2023/02/17 13:20:02;;;;;;;0.77;0.50;;;;;;;;;;5061859;28;20055;-69
2023/02/17 13:22:28;;;;;;;3.45;0.80;;;;;;;;;;5072149;28;20032;-75
2023/02/17 13:24:55;;;;;;;2.10;0.80;;;;;;;;;;5071259;28;20211;-75
2023/02/17 13:27:27;;;;;;;3.15;0.90;;;;;;;;;;5053953;28;20505;-69
2023/02/17 13:29:59;;;;;;;1.48;0.85;;;;;;;;;;5059227;28;20041;-71
2023/02/17 13:32:30;;;;;;;1.75;0.85;;;;;;;;;;5053686;28;20021;-71
2023/02/17 13:35:07;;;;;;;4.20;1.00;;;;;;;;;;5039852;28;20025;-71
2023/02/17 13:37:33;;;;;;;4.43;0.88;;;;;;;;;;5052861;28;20131;-77
2023/02/17 13:40:00;;;;;;;1.45;1.00;;;;;;;;;;5053901;28;20025;-72
2023/02/17 13:42:34;;;;;;;2.25;0.80;;;;;;;;;;5051536;28;20044;-77
2023/02/17 13:45:00;;;;;;;2.78;0.68;;;;;;;;;;5053360;28;20082;-74
2023/02/17 13:47:33;;;;;;;1.27;1.00;;;;;;;;;;5054937;28;20112;-74
2023/02/17 13:49:59;;;;;;;1.20;0.75;;;;;;;;;;5054675;28;20098;-73
2023/02/17 13:52:27;;;;;;;1.67;0.75;;;;;;;;;;5047092;28;20459;-72
2023/02/17 13:55:04;;;;;;;2.50;0.75;;;;;;;;;;5075807;28;20017;-73
2023/02/17 13:57:32;;;;;;;2.00;0.73;;;16.00;99.90;;;;;;5055514;28;20033;-72
2023/02/17 14:00:25;;;;;;;3.00;0.82;;;16.10;99.90;;;;;;5051252;28;20036;-73
2023/02/17 14:02:57;;;;;;;2.03;0.90;;;16.10;99.90;;;;;;5050348;28;20118;-74
2023/02/17 14:05:39;;;;;;;1.23;0.75;;;16.00;99.90;;;;;;5059921;28;20032;-74
2023/02/17 14:08:33;;;;;;;2.13;0.90;;;15.90;99.90;;;;;;5052104;28;20043;-75
2023/02/17 14:11:14;;;;;;;1.50;0.90;;;15.80;99.90;;;;;;5063288;28;20100;-70
2023/02/17 14:13:49;;;;;;;2.75;0.80;;;15.70;99.90;;;;;;5058748;28;20044;-73
2023/02/17 14:16:42;;;;;;;5.63;0.90;;;15.80;99.90;;;;;;5052257;28;20033;-72
2023/02/17 14:19:16;;;;;;;1.38;0.73;;;15.70;99.90;;;;;;5049938;28;20036;-75
2023/02/17 14:21:55;;;;;;;1.55;0.80;;;15.60;99.90;;;;;;5048650;28;20033;-73
2023/02/17 14:24:26;;;;;;;4.50;1.50;;;15.40;99.90;;;;;;5057471;28;20509;-73
2023/02/17 14:27:00;;;;;;;1.45;0.80;;;15.30;99.90;;;;;;5048642;28;20052;-76
2023/02/17 14:29:40;;;;;;;4.18;1.20;;;15.20;99.90;;;;;;5054723;28;20025;-78
2023/02/17 14:32:06;;;;;;;;;;;15.40;99.90;;;;;;5063147;28;20024;-77
2023/02/17 14:34:34;;;;;;;3.70;1.02;;;15.30;99.90;;;;;;5055287;28;19928;-79
2023/02/17 14:37:20;;;;;;;2.15;1.02;;;15.40;99.90;;;;;;5055412;28;20037;-70
2023/02/17 14:39:45;;;;;;;2.40;0.98;;;15.20;99.90;;;;;;5044258;28;20033;-76
2023/02/17 14:42:11;;;;;;;1.48;0.80;;;15.00;99.90;;;;;;5046066;28;20035;-75
2023/02/17 14:44:37;;;;;;;2.83;0.95;;;15.00;99.90;;;;;;5022893;28;20033;-75
2023/02/17 14:47:03;;;;;;;1.15;0.90;;;15.00;99.90;;;;;;5039644;28;20049;-75
2023/02/17 14:49:28;;;;;;;3.28;1.00;;;14.90;99.90;;;;;;5042925;28;20100;-77